Detall de PIREP

Printer-friendly versionPDF version

[2010/10/14 10:16:00]
Flight IATA:CT2110
Pilot Number:041
Company ICAO:CAT
Aircraft Type:F28/A
PAX:70
Departing Airport: LEVC
Destination Airport: LEST
Alternate Airport:LECO
Online: VATSIM
Route:CENTA A33 PRADO A33 CJN A33 HORTA A33 MAGIN A33 INDEG A33 DISKO A33 ZMR A33 BARKO A33 FORNO
Flight Level:FL210
No Slew and time accel
No pause
Crash detect
Detect pilot in Cockpit between each 30 and 45 minutes
10:16 Zero fuel Weight: 53037 Lbs, Fuel Weight: 12502 Lbs
10:16 VATSIM:LEVC 141000Z 00000KT CAVOK 22/14 Q1012 NOSIG
10:16 VATSIM:LEST 141000Z 06006KT 020V100 7000 NSC 13/09 Q1016 NOSIG
10:16 VOICE CATALONIAN
10:20 Parking Brakes off
10:26 Take-off
10:26 Take off Weight: 65148 Lbs
10:26 Wind: 287º @ 002 Knots Heading: 296º
10:26 POS N39º 29´ 30´´ W000º 29´ 18´´
10:26 Gear Up: 182 Knots
10:26 Flaps:1 at 182 Knots
10:26 Flaps:0 at 228 Knots
10:37 TOC
10:37 Fuel Weight: 10670 Lb
10:41 Wind:292º@020 Knots Heading: 298º Ground Speed: 376 Knots Altitude 21026 ft
10:56 Wind:318º@019 Knots Heading: 297º Ground Speed: 378 Knots Altitude 21040 ft
11:11 Wind:345º@020 Knots Heading: 306º Ground Speed: 381 Knots Altitude 21079 ft
11:24 TOD
11:24 Fuel Weight: 6959 Lb
11:26 Wind:009º@021 Knots Heading: 306º Ground Speed: 315 Knots Altitude 17906 ft
11:39 Flaps:1 at 221 Knots
11:40 Flaps:2 at 210 Knots
11:41 Wind:020º@006 Knots Heading: 161º Ground Speed: 220 Knots Altitude 3897 ft
11:41 Gear Down: 213 Knots
11:41 Flaps:3 at 209 Knots
11:42 Flaps:4 at 158 Knots
11:43 Flaps:5 at 141 Knots
11:44 TouchDown:Rate -124 ft/min Speed: 112 Knots
11:44 Flaps:1 at 100 Knots
11:44 Flaps:0 at 93 Knots
11:44 VATSIM:LEST 141130Z 04006KT 010V090 CAVOK 15/09 Q1016 NOSIG
11:44 Land
11:44 Wind:038º@006 Knots
11:44 Heading: 169º
11:44 Flight Duration: 01:18
11:44 Landing Weight: 59125 Lbs
11:44 POS N42º 53´ 50´´ W008º 24´ 55´´
11:46 Parking brakes on
11:46 Block to Block Duration: 01:26
11:46 Final Fuel: 5996 Lbls
11:46 Spent Fuel: 6505 Lbls
11:46 Flight Length: 437 NM
11:46 TOD Land Length: 86 NM

Exportar CSV

Powered by Drupal - Modified by Danger4k